Westport, Oklahoma
Current Conditions -  °F | °C
As of 1:15 AM on Friday 31 Oct 2014 (Local Time) from KOWP Reporting Station
Clear Clear  
Wind Chill: 15°   Ceiling: Unl
Heat Index: 15°   Visibility: 10mi
Dew Point:   Wind: 7mph
Humidity: 49%   Direction: 360°N
Pressure: 30.21"   Gusts: NA
Location:  36.248°N, 96.4789°W
Report Text: KOWP 310615Z AUTO 36006KT 330V030 10SM CLR 15/04 A3021 RMK AO2 T01450038
Loading
Personal Weather Stations






























Interactive Weather Map
Tropical Storm Tracking
New forecast layout! Learn more

10-Day Weather Forecast

Advertisements
Track Severe Weather on mobile